Time;durP1;ratioP1;P1;durP2;ratioP2;P2;SDS_P1;SDS_P2;PMS_P1;PMS_P2;Temp;Humidity;BMP_temperature;BMP_pressure;BME280_temperature;BME280_humidity;BME280_pressure;Samples;Min_cycle;Max_cycle;Signal;HPM_P1;HPM_P2
2023/07/05 00:01:06;;;;;;;;;8.50;8.00;;;;;;;;119834;1189;25705;-62
2023/07/05 00:03:36;;;;;;;;;11.00;9.00;;;;;;;;119855;1192;24913;-62
2023/07/05 00:06:05;;;;;;;;;7.00;7.00;;;;;;;;119884;1192;24848;-62
2023/07/05 00:08:33;;;;;;;;;8.00;8.00;;;;;;;;119457;1193;25142;-62
2023/07/05 00:11:04;;;;;;;;;8.00;6.75;;;;;;;;119456;1185;26076;-63
2023/07/05 00:13:33;;;;;;;;;8.50;8.00;;;;;;;;119481;1190;25686;-63
2023/07/05 00:16:01;;;;;;;;;11.00;9.25;;;;;;;;119472;1193;24811;-62
2023/07/05 00:18:30;;;;;;;;;10.00;10.00;;;;;;;;119686;1185;24872;-62
2023/07/05 00:21:00;;;;;;;;;8.00;8.00;;;;;;;;119690;1193;25529;-62
2023/07/05 00:23:29;;;;;;;;;10.50;8.00;;;;;;;;119492;1193;25734;-62
2023/07/05 00:25:58;;;;;;;;;8.00;8.00;;;;;;;;119683;1185;25733;-62
2023/07/05 00:28:26;;;;;;;;;11.00;10.00;;;;;;;;119454;1192;25278;-62
2023/07/05 00:30:54;;;;;;;;;8.00;6.00;;;;;;;;119736;1192;25029;-63
2023/07/05 00:33:23;;;;;;;;;8.00;8.00;;;;;;;;119862;1184;25052;-62
2023/07/05 00:35:53;;;;;;;;;6.00;6.00;;;;;;;;119864;1192;25644;-63
2023/07/05 00:38:22;;;;;;;;;8.50;8.00;;;;;;;;119490;1185;25385;-62
2023/07/05 00:40:51;;;;;;;;;9.00;9.00;;;;;;;;119503;1186;25324;-62
2023/07/05 00:43:20;;;;;;;;;11.67;9.33;;;;;;;;119702;1185;25102;-62
2023/07/05 00:45:50;;;;;;;;;9.50;9.50;;;;;;;;119728;1192;25236;-62
2023/07/05 00:48:34;;;;;;;;;8.50;8.00;;;;;;;;119680;1193;25174;-62
2023/07/05 00:51:07;;;;;;;;;8.50;7.00;;;;;;;;119513;1185;25224;-62
2023/07/05 00:53:37;;;;;;;;;8.00;7.50;;;;;;;;119883;1192;25049;-62
2023/07/05 00:56:11;;;;;;;;;11.00;9.33;;;;;;;;119483;1192;24876;-62
2023/07/05 00:58:40;;;;;;;;;9.50;9.50;;;;;;;;119473;1192;25492;-62
2023/07/05 01:01:08;;;;;;;;;9.00;9.00;;;;;;;;119475;1189;25136;-62
2023/07/05 01:03:37;;;;;;;;;7.00;6.00;;;;;;;;119899;1192;25639;-62
2023/07/05 01:06:07;;;;;;;;;8.00;8.00;;;;;;;;119478;1193;25413;-62
2023/07/05 01:08:35;;;;;;;;;10.00;9.50;;;;;;;;119681;1192;25001;-62
2023/07/05 01:11:10;;;;;;;;;8.33;7.33;;;;;;;;119820;1192;25445;-62
2023/07/05 01:13:46;;;;;;;;;8.00;8.00;;;;;;;;119501;1192;25570;-62
2023/07/05 01:16:23;;;;;;;;;10.00;7.67;;;;;;;;119834;1192;25516;-61
2023/07/05 01:19:14;;;;;;;;;6.00;6.00;;;;;;;;119457;1190;25212;-63
2023/07/05 01:21:55;;;;;;;;;8.00;7.67;;;;;;;;119668;1189;24851;-62
2023/07/05 01:24:30;;;;;;;;;8.50;6.50;;;;;;;;119464;1185;25487;-62
2023/07/05 01:27:04;;;;;;;;;7.50;5.50;;;;;;;;119675;1192;25697;-62
2023/07/05 01:29:48;;;;;;;;;8.00;8.00;;;;;;;;119797;1192;25278;-62
2023/07/05 01:32:37;;;;;;;;;8.00;8.00;;;;;;;;119877;1184;25018;-62
2023/07/05 01:35:17;;;;;;;;;7.00;6.00;;;;;;;;119507;1190;24948;-62
2023/07/05 01:37:46;;;;;;;;;11.00;9.00;;;;;;;;119474;1192;25163;-62
2023/07/05 01:40:34;;;;;;;;;10.67;10.00;;;;;;;;119515;1192;24853;-62
2023/07/05 01:43:10;;;;;;;;;9.25;7.75;;;;;;;;119805;1192;25704;-62
2023/07/05 01:45:53;;;;;;;;;11.00;8.50;;;;;;;;119509;1192;24855;-62
2023/07/05 01:48:37;;;;;;;;;10.67;9.33;;;;;;;;119485;1192;24847;-63
2023/07/05 01:51:46;;;;;;;;;7.00;6.00;;;;;;;;119495;1193;25351;-62
2023/07/05 01:54:42;;;;;;;;;9.50;8.50;;;;;;;;119636;1193;25022;-62
2023/07/05 01:57:16;;;;;;;;;8.33;8.00;;;;;;;;119489;1192;24842;-62
2023/07/05 01:59:55;;;;;;;;;5.00;5.00;;;;;;;;119866;1192;24769;-62
2023/07/05 02:02:30;;;;;;;;;8.33;8.33;;;;;;;;119507;1192;25295;-62
2023/07/05 02:05:00;;;;;;;;;11.50;10.00;;;;;;;;119495;1192;25613;-62
2023/07/05 02:07:30;;;;;;;;;9.00;9.00;;;;;;;;119751;1186;25409;-62
2023/07/05 02:09:59;;;;;;;;;11.00;9.00;;;;;;;;119495;1192;25146;-61
2023/07/05 02:12:27;;;;;;;;;10.00;7.00;;;;;;;;119862;1192;24794;-61
2023/07/05 02:14:56;;;;;;;;;11.00;9.50;;;;;;;;119487;1189;25353;-62
2023/07/05 02:17:24;;;;;;;;;11.00;11.00;;;;;;;;119719;1192;25617;-61
2023/07/05 02:19:53;;;;;;;;;10.50;10.00;;;;;;;;119782;1192;25540;-61
2023/07/05 02:22:21;;;;;;;;;6.33;6.33;;;;;;;;119461;1193;24949;-61
2023/07/05 02:24:51;;;;;;;;;8.00;8.00;;;;;;;;119810;1192;25045;-62
2023/07/05 02:27:20;;;;;;;;;11.00;8.00;;;;;;;;119577;1185;25638;-62
2023/07/05 02:29:50;;;;;;;;;10.50;10.00;;;;;;;;119494;1186;24977;-61
2023/07/05 02:32:20;;;;;;;;;12.25;10.00;;;;;;;;119822;1192;25260;-62
2023/07/05 02:34:49;;;;;;;;;14.00;10.00;;;;;;;;119518;1192;25172;-61
2023/07/05 02:37:17;;;;;;;;;13.00;10.25;;;;;;;;119856;1184;25636;-61
2023/07/05 02:39:45;;;;;;;;;9.00;9.00;;;;;;;;119440;1190;25103;-61
2023/07/05 02:42:13;;;;;;;;;12.00;9.00;;;;;;;;119676;1192;25107;-61
2023/07/05 02:44:42;;;;;;;;;13.00;10.00;;;;;;;;119862;1184;24864;-61
2023/07/05 02:47:10;;;;;;;;;9.00;9.00;;;;;;;;119853;1192;24694;-61
2023/07/05 02:49:38;;;;;;;;;10.00;10.00;;;;;;;;119853;1192;24709;-61
2023/07/05 02:52:07;;;;;;;;;11.33;10.67;;;;;;;;119859;1192;25626;-61
2023/07/05 02:54:35;;;;;;;;;11.50;8.50;;;;;;;;119671;1185;25399;-62
2023/07/05 02:57:04;;;;;;;;;8.00;8.00;;;;;;;;119455;1193;24763;-61
2023/07/05 02:59:32;;;;;;;;;3.67;3.00;;;;;;;;119723;1192;25088;-61
2023/07/05 03:02:01;;;;;;;;;9.00;9.00;;;;;;;;119469;1193;25632;-61
2023/07/05 03:04:29;;;;;;;;;11.00;10.00;;;;;;;;119480;1186;25698;-61
2023/07/05 03:06:58;;;;;;;;;8.00;8.00;;;;;;;;119694;1193;24744;-62
2023/07/05 03:09:26;;;;;;;;;9.67;9.67;;;;;;;;119686;1185;25569;-61
2023/07/05 03:11:55;;;;;;;;;10.50;10.00;;;;;;;;119728;1192;25294;-62
2023/07/05 03:14:23;;;;;;;;;12.33;9.00;;;;;;;;119704;1185;25225;-62
2023/07/05 03:16:51;;;;;;;;;10.50;10.00;;;;;;;;119683;1193;25584;-61
2023/07/05 03:19:20;;;;;;;;;9.67;9.33;;;;;;;;119688;1193;24997;-62
2023/07/05 03:21:48;;;;;;;;;9.33;9.00;;;;;;;;119696;1184;24867;-62
2023/07/05 03:24:16;;;;;;;;;9.33;9.33;;;;;;;;119479;1193;25034;-62
2023/07/05 03:26:46;;;;;;;;;9.00;8.00;;;;;;;;119688;1183;25588;-62
2023/07/05 03:29:14;;;;;;;;;10.00;10.00;;;;;;;;119682;1192;25407;-61
2023/07/05 03:31:42;;;;;;;;;10.00;10.00;;;;;;;;119833;1185;25572;-62
2023/07/05 03:34:11;;;;;;;;;14.25;10.50;;;;;;;;119489;1192;25025;-61
2023/07/05 03:36:39;;;;;;;;;11.00;11.00;;;;;;;;119857;1192;25229;-62
2023/07/05 03:39:07;;;;;;;;;11.00;11.00;;;;;;;;119665;1193;25295;-62
2023/07/05 03:41:36;;;;;;;;;10.50;8.50;;;;;;;;119672;1193;25269;-63
2023/07/05 03:44:04;;;;;;;;;11.00;10.00;;;;;;;;119444;1192;24798;-62
2023/07/05 03:46:32;;;;;;;;;11.00;9.33;;;;;;;;119892;1192;25956;-62
2023/07/05 03:49:01;;;;;;;;;11.75;11.75;;;;;;;;119472;1192;25313;-62
2023/07/05 03:51:29;;;;;;;;;10.67;9.33;;;;;;;;119722;1180;25217;-61
2023/07/05 03:53:58;;;;;;;;;10.00;8.25;;;;;;;;119800;1192;25478;-61
2023/07/05 03:56:27;;;;;;;;;11.33;11.33;;;;;;;;119780;1192;24940;-62
2023/07/05 03:58:55;;;;;;;;;11.00;10.50;;;;;;;;119695;1193;25152;-61
2023/07/05 04:01:26;;;;;;;;;9.50;9.00;;;;;;;;119809;1188;25186;-63
2023/07/05 04:03:57;;;;;;;;;8.50;8.50;;;;;;;;119481;1186;24937;-62
2023/07/05 04:06:30;;;;;;;;;11.33;9.00;;;;;;;;119502;1192;24871;-62
2023/07/05 04:08:58;;;;;;;;;10.00;10.00;;;;;;;;119871;1192;24967;-63
2023/07/05 04:11:27;;;;;;;;;14.25;14.25;;;;;;;;119503;1192;25136;-62
2023/07/05 04:13:56;;;;;;;;;10.00;10.00;;;;;;;;119481;1193;24829;-63
2023/07/05 04:16:26;;;;;;;;;12.00;10.67;;;;;;;;119469;1185;25064;-62
2023/07/05 04:18:56;;;;;;;;;12.50;10.75;;;;;;;;119418;1189;25469;-63
2023/07/05 04:21:26;;;;;;;;;11.00;8.50;;;;;;;;119887;1192;25351;-62
2023/07/05 04:23:54;;;;;;;;;11.50;10.50;;;;;;;;119714;1192;25469;-63
2023/07/05 04:26:24;;;;;;;;;11.67;10.33;;;;;;;;119458;1193;25287;-62
2023/07/05 04:28:53;;;;;;;;;12.00;12.00;;;;;;;;119464;1193;24951;-63
2023/07/05 04:31:27;;;;;;;;;9.50;9.00;;;;;;;;119510;1189;25052;-64
2023/07/05 04:33:57;;;;;;;;;13.33;9.67;;;;;;;;119792;1188;24769;-64
2023/07/05 04:36:25;;;;;;;;;11.50;11.50;;;;;;;;119451;1192;25107;-64
2023/07/05 04:38:57;;;;;;;;;10.67;10.67;;;;;;;;119493;1192;25202;-63
2023/07/05 04:41:26;;;;;;;;;9.00;8.00;;;;;;;;119761;1192;24915;-64
2023/07/05 04:43:55;;;;;;;;;11.00;10.33;;;;;;;;119784;1192;24843;-63
2023/07/05 04:46:23;;;;;;;;;12.00;10.00;;;;;;;;119769;1192;25341;-63
2023/07/05 04:48:52;;;;;;;;;10.50;10.50;;;;;;;;119473;1192;24784;-63
2023/07/05 04:51:21;;;;;;;;;12.50;10.50;;;;;;;;119760;1188;24975;-63
2023/07/05 04:53:49;;;;;;;;;11.00;8.00;;;;;;;;119568;1189;25691;-63
2023/07/05 04:56:17;;;;;;;;;8.50;8.50;;;;;;;;119694;1185;25143;-64
2023/07/05 04:58:48;;;;;;;;;9.00;8.00;;;;;;;;119884;1191;25485;-63
2023/07/05 05:01:18;;;;;;;;;12.00;10.67;;;;;;;;119867;1191;24925;-63
2023/07/05 05:03:46;;;;;;;;;8.00;7.00;;;;;;;;119833;1183;25293;-63
2023/07/05 05:06:15;;;;;;;;;10.00;9.67;;;;;;;;119750;1192;24865;-63
2023/07/05 05:08:43;;;;;;;;;10.33;8.67;;;;;;;;119853;1183;25162;-63
2023/07/05 05:11:11;;;;;;;;;13.00;10.00;;;;;;;;119790;1183;25607;-74
2023/07/05 05:13:40;;;;;;;;;9.67;9.67;;;;;;;;119842;1192;24841;-67
2023/07/05 05:16:08;;;;;;;;;9.00;7.00;;;;;;;;119671;1193;25545;-69
2023/07/05 05:18:37;;;;;;;;;14.00;13.50;;;;;;;;119712;1185;24964;-68
2023/07/05 05:21:06;;;;;;;;;11.50;11.50;;;;;;;;119696;1186;25557;-69
2023/07/05 05:23:35;;;;;;;;;18.00;11.00;;;;;;;;119823;1192;25163;-67
2023/07/05 05:26:04;;;;;;;;;13.33;10.33;;;;;;;;119501;1192;25482;-68
2023/07/05 05:28:32;;;;;;;;;13.00;11.50;;;;;;;;119503;1192;25315;-65
2023/07/05 05:31:06;;;;;;;;;16.00;11.25;;;;;;;;119777;1183;25573;-69
2023/07/05 05:33:35;;;;;;;;;15.00;14.50;;;;;;;;119757;1189;24845;-74
2023/07/05 05:36:04;;;;;;;;;14.00;11.50;;;;;;;;119456;1192;25570;-67
2023/07/05 05:38:34;;;;;;;;;12.00;12.00;;;;;;;;119673;1189;25163;-66
2023/07/05 05:41:07;;;;;;;;;15.67;11.67;;;;;;;;119480;1192;25528;-70
2023/07/05 05:43:37;;;;;;;;;12.67;12.00;;;;;;;;119502;1192;24860;-61
2023/07/05 05:46:07;;;;;;;;;16.33;16.00;;;;;;;;119468;1180;24992;-68
2023/07/05 05:48:38;;;;;;;;;13.00;9.67;;;;;;;;119465;1193;25566;-67
2023/07/05 05:51:06;;;;;;;;;13.33;13.33;;;;;;;;119478;1193;25503;-66
2023/07/05 05:53:34;;;;;;;;;17.00;17.00;;;;;;;;119698;1193;24900;-67
2023/07/05 05:56:04;;;;;;;;;17.67;14.33;;;;;;;;119674;1193;25701;-67
2023/07/05 05:58:32;;;;;;;;;16.00;12.00;;;;;;;;119695;1193;25422;-72
2023/07/05 06:01:01;;;;;;;;;18.75;14.00;;;;;;;;119686;1193;25227;-69
2023/07/05 06:03:30;;;;;;;;;12.00;10.50;;;;;;;;119454;1193;25697;-70
2023/07/05 06:05:59;;;;;;;;;9.50;8.50;;;;;;;;119478;1185;24704;-70
2023/07/05 06:08:27;;;;;;;;;12.25;12.25;;;;;;;;119464;1193;25539;-71
2023/07/05 06:11:00;;;;;;;;;9.50;9.50;;;;;;;;119711;1185;25047;-72
2023/07/05 06:13:30;;;;;;;;;13.00;11.00;;;;;;;;119473;1193;24887;-73
2023/07/05 06:16:00;;;;;;;;;15.50;13.00;;;;;;;;119457;1193;24863;-73
2023/07/05 06:18:31;;;;;;;;;13.00;8.67;;;;;;;;119452;1193;25391;-69
2023/07/05 06:21:00;;;;;;;;;12.33;11.33;;;;;;;;119821;1183;25658;-71
2023/07/05 06:23:28;;;;;;;;;11.25;11.25;;;;;;;;119881;1192;25101;-71
2023/07/05 06:25:56;;;;;;;;;15.50;10.00;;;;;;;;119864;1192;24898;-72
2023/07/05 06:28:24;;;;;;;;;11.67;11.67;;;;;;;;119833;1183;25071;-72
2023/07/05 06:30:53;;;;;;;;;15.00;12.67;;;;;;;;119460;1185;25497;-69
2023/07/05 06:33:22;;;;;;;;;14.50;10.00;;;;;;;;119662;1193;25541;-71
2023/07/05 06:35:50;;;;;;;;;15.75;12.50;;;;;;;;119789;1192;25253;-68
2023/07/05 06:38:18;;;;;;;;;17.00;15.50;;;;;;;;119864;1184;24822;-69
2023/07/05 06:40:51;;;;;;;;;15.33;11.33;;;;;;;;119889;1192;25573;-70
2023/07/05 06:43:21;;;;;;;;;14.50;11.00;;;;;;;;119727;1192;25271;-69
2023/07/05 06:45:51;;;;;;;;;12.00;11.00;;;;;;;;119740;1192;25068;-69
2023/07/05 06:48:20;;;;;;;;;16.50;15.50;;;;;;;;119857;1183;25414;-70
2023/07/05 06:50:50;;;;;;;;;15.00;11.50;;;;;;;;119473;1185;25111;-66
2023/07/05 06:53:20;;;;;;;;;16.00;13.50;;;;;;;;119493;1189;24774;-68
2023/07/05 06:56:09;;;;;;;;;17.00;13.00;;;;;;;;119524;1192;25037;-68
2023/07/05 06:58:38;;;;;;;;;12.33;11.67;;;;;;;;119453;1192;25570;-69
2023/07/05 07:01:06;;;;;;;;;11.00;10.33;;;;;;;;119436;1193;25491;-69
2023/07/05 07:03:38;;;;;;;;;12.00;11.00;;;;;;;;119822;1188;25507;-68
2023/07/05 07:06:06;;;;;;;;;12.67;12.67;;;;;;;;119460;1192;25257;-69
2023/07/05 07:08:38;;;;;;;;;13.50;13.00;;;;;;;;119804;1192;24842;-68
2023/07/05 07:11:10;;;;;;;;;13.33;11.00;;;;;;;;119837;1189;25545;-68
2023/07/05 07:13:39;;;;;;;;;13.00;11.00;;;;;;;;119495;1182;25154;-67
2023/07/05 07:16:13;;;;;;;;;14.67;11.33;;;;;;;;119766;1189;24701;-70
2023/07/05 07:18:45;;;;;;;;;13.00;12.00;;;;;;;;119475;1186;26357;-67
2023/07/05 07:21:13;;;;;;;;;11.50;10.50;;;;;;;;119466;1193;25640;-68
2023/07/05 07:23:41;;;;;;;;;14.50;14.50;;;;;;;;119691;1193;25409;-68
2023/07/05 07:26:13;;;;;;;;;11.75;11.00;;;;;;;;119467;1193;25434;-70
2023/07/05 07:28:41;;;;;;;;;14.00;12.00;;;;;;;;119688;1193;25400;-67
2023/07/05 07:31:16;;;;;;;;;11.00;10.50;;;;;;;;119689;1193;25195;-67
2023/07/05 07:33:45;;;;;;;;;12.00;11.00;;;;;;;;119460;1193;25520;-69
2023/07/05 07:36:16;;;;;;;;;13.00;11.50;;;;;;;;119459;1186;24888;-78
2023/07/05 07:38:45;;;;;;;;;13.67;12.00;;;;;;;;119444;1185;24810;-70
2023/07/05 07:41:19;;;;;;;;;13.50;10.25;;;;;;;;119418;1186;24804;-71
2023/07/05 07:43:52;;;;;;;;;14.00;13.00;;;;;;;;119421;1186;24986;-68
2023/07/05 07:46:23;;;;;;;;;14.00;10.00;;;;;;;;119409;1194;26468;-66
2023/07/05 07:48:54;;;;;;;;;12.50;10.00;;;;;;;;119401;1194;25087;-65
2023/07/05 07:51:25;;;;;;;;;8.50;8.50;;;;;;;;119427;1186;25458;-67
2023/07/05 07:54:08;;;;;;;;;13.00;12.50;;;;;;;;119461;1185;25025;-66
2023/07/05 07:56:41;;;;;;;;;16.25;13.25;;;;;;;;119417;1194;25561;-73
2023/07/05 07:59:10;;;;;;;;;10.33;10.33;;;;;;;;119458;1190;25063;-68
2023/07/05 08:01:39;;;;;;;;;12.00;12.00;;;;;;;;119455;1193;24931;-64
2023/07/05 08:04:09;;;;;;;;;10.67;9.67;;;;;;;;119689;1193;24962;-66
2023/07/05 08:06:40;;;;;;;;;9.33;9.33;;;;;;;;119460;1186;25537;-65
2023/07/05 08:09:15;;;;;;;;;13.00;11.00;;;;;;;;119422;1194;25493;-64
2023/07/05 08:11:44;;;;;;;;;13.00;9.50;;;;;;;;119449;1194;25073;-64
2023/07/05 08:14:13;;;;;;;;;10.50;10.50;;;;;;;;119418;1194;24873;-66
2023/07/05 08:16:42;;;;;;;;;9.67;8.67;;;;;;;;119497;1186;25314;-65
2023/07/05 08:19:10;;;;;;;;;10.00;10.00;;;;;;;;119497;1192;25127;-70
2023/07/05 08:21:42;;;;;;;;;13.00;12.00;;;;;;;;119880;1184;25435;-64
2023/07/05 08:24:11;;;;;;;;;10.00;10.00;;;;;;;;119864;1192;25618;-65
2023/07/05 08:26:54;;;;;;;;;10.00;10.00;;;;;;;;119733;1186;25469;-65
2023/07/05 08:29:23;;;;;;;;;13.00;10.00;;;;;;;;119827;1185;26174;-65
2023/07/05 08:31:51;;;;;;;;;13.00;11.25;;;;;;;;119446;1189;25498;-64
2023/07/05 08:34:20;;;;;;;;;15.00;12.00;;;;;;;;119481;1185;25473;-64
2023/07/05 08:36:48;;;;;;;;;13.50;11.50;;;;;;;;119494;1189;24764;-64
2023/07/05 08:39:16;;;;;;;;;8.67;8.00;;;;;;;;119480;1192;25323;-65
2023/07/05 08:41:56;;;;;;;;;14.00;10.50;;;;;;;;119789;1183;25038;-64
2023/07/05 08:44:30;;;;;;;;;11.00;9.00;;;;;;;;119816;1186;25486;-64
2023/07/05 08:47:11;;;;;;;;;12.00;12.00;;;;;;;;119806;1184;24969;-67
2023/07/05 08:49:45;;;;;;;;;12.00;11.67;;;;;;;;119733;1186;25464;-67
2023/07/05 08:52:35;;;;;;;;;12.00;12.00;;;;;;;;119877;1192;25308;-68
2023/07/05 08:55:08;;;;;;;;;11.75;10.50;;;;;;;;119842;1188;24922;-68
2023/07/05 08:57:56;;;;;;;;;10.25;9.75;;;;;;;;119520;1192;25619;-67
2023/07/05 09:00:39;;;;;;;;;13.00;12.00;;;;;;;;119495;1190;25394;-67
2023/07/05 09:03:10;;;;;;;;;13.33;11.33;;;;;;;;119797;1179;25662;-66
2023/07/05 09:05:45;;;;;;;;;12.00;12.00;;;;;;;;119784;1185;24888;-72
2023/07/05 09:08:48;;;;;;;;;10.00;9.00;;;;;;;;119428;1187;25523;-71
2023/07/05 09:11:25;;;;;;;;;9.67;9.33;;;;;;;;119548;1192;25325;-70
2023/07/05 09:14:16;;;;;;;;;10.50;9.50;;;;;;;;119504;1190;25115;-72
2023/07/05 09:16:59;;;;;;;;;15.00;11.00;;;;;;;;119630;1189;25326;-71
2023/07/05 09:19:53;;;;;;;;;9.50;9.50;;;;;;;;119842;1192;25592;-70
2023/07/05 09:22:26;;;;;;;;;15.00;13.50;;;;;;;;119860;1188;24859;-69
2023/07/05 09:24:55;;;;;;;;;13.00;12.00;;;;;;;;119506;1192;25224;-69
2023/07/05 09:27:35;;;;;;;;;13.50;13.00;;;;;;;;119508;1192;25455;-70
2023/07/05 09:30:10;;;;;;;;;13.00;10.50;;;;;;;;119488;1192;25122;-73
2023/07/05 09:32:40;;;;;;;;;11.67;11.00;;;;;;;;119507;1185;24767;-72
2023/07/05 09:35:28;;;;;;;;;8.50;8.50;;;;;;;;119576;1189;25662;-72
2023/07/05 09:37:56;;;;;;;;;12.00;10.50;;;;;;;;119842;1192;24860;-72
2023/07/05 09:40:32;;;;;;;;;11.33;11.33;;;;;;;;119860;1188;24815;-70
2023/07/05 09:43:05;;;;;;;;;16.00;11.33;;;;;;;;119483;1192;25026;-70
2023/07/05 09:45:33;;;;;;;;;13.67;13.33;;;;;;;;119543;1186;25596;-71
2023/07/05 09:48:04;;;;;;;;;10.50;10.50;;;;;;;;119493;1190;25259;-71
2023/07/05 09:50:33;;;;;;;;;9.00;9.00;;;;;;;;119471;1185;25069;-69
2023/07/05 09:53:23;;;;;;;;;11.00;10.00;;;;;;;;119794;1192;25487;-70
2023/07/05 09:56:11;;;;;;;;;10.00;10.00;;;;;;;;119866;1192;25659;-67
2023/07/05 09:58:40;;;;;;;;;15.00;12.00;;;;;;;;119854;1184;25607;-70
2023/07/05 10:01:18;;;;;;;;;12.00;11.00;;;;;;;;119493;1180;26627;-70
2023/07/05 10:03:53;;;;;;;;;15.00;13.00;;;;;;;;119733;1192;24911;-69
2023/07/05 10:06:24;;;;;;;;;11.75;10.50;;;;;;;;119595;1189;25159;-68
2023/07/05 10:08:53;;;;;;;;;13.33;10.33;;;;;;;;119863;1183;25423;-67
2023/07/05 10:11:26;;;;;;;;;17.00;12.00;;;;;;;;119568;1188;25457;-72
2023/07/05 10:14:15;;;;;;;;;15.25;13.00;;;;;;;;119466;1192;25238;-72
2023/07/05 10:17:03;;;;;;;;;13.50;12.00;;;;;;;;119682;1189;25845;-73
2023/07/05 10:19:42;;;;;;;;;18.00;14.50;;;;;;;;119710;1188;24865;-73
2023/07/05 10:22:31;;;;;;;;;10.50;9.50;;;;;;;;119853;1192;25093;-71
2023/07/05 10:25:16;;;;;;;;;16.00;13.33;;;;;;;;119547;1190;25105;-73
2023/07/05 10:27:49;;;;;;;;;8.67;8.00;;;;;;;;119853;1184;25412;-71
2023/07/05 10:30:20;;;;;;;;;13.33;13.33;;;;;;;;119488;1192;26629;-70
2023/07/05 10:33:09;;;;;;;;;11.00;11.00;;;;;;;;119501;1192;24813;-71
2023/07/05 10:35:45;;;;;;;;;12.00;12.00;;;;;;;;119781;1189;25381;-71
2023/07/05 10:38:28;;;;;;;;;10.75;10.75;;;;;;;;119866;1192;25381;-74
2023/07/05 10:41:19;;;;;;;;;13.00;11.00;;;;;;;;119582;1189;25384;-69
2023/07/05 10:44:12;;;;;;;;;12.00;10.00;;;;;;;;119797;1188;25197;-72
2023/07/05 10:46:41;;;;;;;;;11.00;10.00;;;;;;;;119889;1179;24874;-71
2023/07/05 10:49:14;;;;;;;;;13.50;13.00;;;;;;;;119861;1184;24749;-73
2023/07/05 10:51:50;;;;;;;;;11.33;10.00;;;;;;;;119480;1192;24812;-72
2023/07/05 10:54:27;;;;;;;;;12.00;12.00;;;;;;;;119516;1192;26542;-73
2023/07/05 10:56:56;;;;;;;;;13.00;10.00;;;;;;;;119891;1192;24973;-66
2023/07/05 10:59:38;;;;;;;;;13.67;13.67;;;;;;;;119473;1192;24843;-71
2023/07/05 11:02:21;;;;;;;;;10.00;9.25;;;;;;;;119476;1189;24924;-66
2023/07/05 11:04:52;;;;;;;;;12.00;12.00;;;;;;;;119465;1185;25414;-65
2023/07/05 11:07:21;;;;;;;;;12.33;11.00;;;;;;;;119862;1192;24976;-65
2023/07/05 11:09:50;;;;;;;;;10.50;10.50;;;;;;;;119494;1192;25644;-65
2023/07/05 11:12:21;;;;;;;;;12.00;12.00;;;;;;;;119876;1184;25254;-66
2023/07/05 11:14:50;;;;;;;;;15.00;13.00;;;;;;;;119479;1185;25031;-65
2023/07/05 11:17:30;;;;;;;;;11.50;10.50;;;;;;;;119490;1192;25070;-64
2023/07/05 11:19:59;;;;;;;;;14.00;10.67;;;;;;;;119451;1192;24891;-64
2023/07/05 11:22:40;;;;;;;;;10.00;9.00;;;;;;;;119503;1186;24915;-64
2023/07/05 11:25:19;;;;;;;;;14.50;10.50;;;;;;;;119517;1189;24905;-65
2023/07/05 11:27:52;;;;;;;;;12.33;12.00;;;;;;;;119684;1185;25165;-65
2023/07/05 11:30:43;;;;;;;;;12.00;11.00;;;;;;;;119800;1192;25706;-65
2023/07/05 11:33:16;;;;;;;;;12.00;10.67;;;;;;;;119882;1189;25432;-65
2023/07/05 11:35:50;;;;;;;;;13.25;12.25;;;;;;;;119823;1181;24926;-64
2023/07/05 11:38:37;;;;;;;;;13.50;11.00;;;;;;;;119787;1192;24877;-66
2023/07/05 11:41:25;;;;;;;;;13.50;13.50;;;;;;;;119617;1189;25143;-66
2023/07/05 11:44:18;;;;;;;;;9.67;9.67;;;;;;;;119862;1192;25584;-64
2023/07/05 11:46:48;;;;;;;;;10.67;8.67;;;;;;;;119877;1192;25657;-63
2023/07/05 11:49:28;;;;;;;;;11.00;11.00;;;;;;;;119496;1185;25136;-64
2023/07/05 11:52:21;;;;;;;;;10.33;10.00;;;;;;;;119532;1188;25558;-64
2023/07/05 11:55:06;;;;;;;;;12.00;12.00;;;;;;;;119491;1186;25558;-63
2023/07/05 11:57:44;;;;;;;;;13.50;12.00;;;;;;;;119596;1180;25079;-64
2023/07/05 12:00:27;;;;;;;;;9.25;9.25;;;;;;;;119546;1189;25763;-64
2023/07/05 12:02:59;;;;;;;;;11.00;9.00;;;;;;;;119868;1189;25628;-67
2023/07/05 12:05:31;;;;;;;;;14.50;11.25;;;;;;;;119504;1192;25429;-71
2023/07/05 12:08:10;;;;;;;;;13.33;12.33;;;;;;;;119486;1185;24831;-69
2023/07/05 12:10:41;;;;;;;;;11.00;11.00;;;;;;;;119877;1192;25258;-69
2023/07/05 12:13:19;;;;;;;;;11.50;10.50;;;;;;;;119492;1192;25596;-69
2023/07/05 12:15:47;;;;;;;;;11.00;10.00;;;;;;;;119495;1192;25595;-70
2023/07/05 12:18:16;;;;;;;;;13.33;11.67;;;;;;;;119868;1192;25546;-74
2023/07/05 12:20:49;;;;;;;;;10.67;10.67;;;;;;;;119720;1189;25066;-68
2023/07/05 12:23:19;;;;;;;;;10.33;8.00;;;;;;;;119469;1186;24935;-68
2023/07/05 12:25:50;;;;;;;;;9.00;9.00;;;;;;;;119498;1192;24893;-68
2023/07/05 12:28:22;;;;;;;;;10.25;10.25;;;;;;;;119442;1187;25654;-68
2023/07/05 12:31:21;;;;;;;;;9.50;9.50;;;;;;;;119620;1188;25558;-68
2023/07/05 12:34:00;;;;;;;;;12.67;11.00;;;;;;;;119419;1193;25767;-66
2023/07/05 12:36:28;;;;;;;;;8.50;8.00;;;;;;;;119444;1190;26564;-67
2023/07/05 12:39:08;;;;;;;;;12.00;12.00;;;;;;;;119858;1190;26061;-68
2023/07/05 12:41:36;;;;;;;;;12.00;10.25;;;;;;;;119480;1185;25820;-69
2023/07/05 12:44:14;;;;;;;;;9.50;9.00;;;;;;;;119483;1192;25403;-68
2023/07/05 12:46:43;;;;;;;;;12.00;9.75;;;;;;;;119517;1189;25183;-68
2023/07/05 12:49:23;;;;;;;;;15.00;11.33;;;;;;;;119516;1186;25583;-67
2023/07/05 12:51:54;;;;;;;;;9.00;8.00;;;;;;;;119876;1188;25533;-67
2023/07/05 12:54:23;;;;;;;;;7.25;6.25;;;;;;;;119861;1192;25293;-68
2023/07/05 12:56:53;;;;;;;;;13.00;9.25;;;;;;;;119481;1186;25283;-68
2023/07/05 12:59:37;;;;;;;;;13.75;9.75;;;;;;;;119475;1185;25487;-68
2023/07/05 13:02:25;;;;;;;;;8.25;8.25;;;;;;;;119518;1179;25184;-67
2023/07/05 13:04:54;;;;;;;;;8.00;8.00;;;;;;;;119961;1188;25045;-67
2023/07/05 13:07:24;;;;;;;;;10.00;9.50;;;;;;;;119489;1189;25166;-67
2023/07/05 13:10:00;;;;;;;;;11.00;10.00;;;;;;;;119463;1186;25473;-67
2023/07/05 13:12:47;;;;;;;;;13.00;10.67;;;;;;;;119488;1184;25578;-68
2023/07/05 13:15:16;;;;;;;;;9.00;9.00;;;;;;;;119808;1186;25580;-71
2023/07/05 13:17:44;;;;;;;;;11.67;11.67;;;;;;;;119819;1192;25700;-72
2023/07/05 13:20:20;;;;;;;;;12.50;12.00;;;;;;;;119464;1193;25037;-71
2023/07/05 13:22:58;;;;;;;;;16.00;13.00;;;;;;;;119795;1192;25284;-71
2023/07/05 13:25:31;;;;;;;;;9.00;8.25;;;;;;;;119573;1185;25346;-71
2023/07/05 13:28:00;;;;;;;;;12.00;10.50;;;;;;;;119852;1188;25410;-68
2023/07/05 13:30:29;;;;;;;;;14.25;9.25;;;;;;;;119464;1186;26492;-67
2023/07/05 13:32:59;;;;;;;;;11.00;10.00;;;;;;;;119519;1190;25908;-67
2023/07/05 13:35:30;;;;;;;;;14.33;11.00;;;;;;;;119522;1186;25545;-66
2023/07/05 13:37:59;;;;;;;;;12.75;12.75;;;;;;;;119541;1190;25582;-66
2023/07/05 13:40:30;;;;;;;;;8.00;8.00;;;;;;;;119500;1190;25697;-67
2023/07/05 13:43:01;;;;;;;;;11.50;11.50;;;;;;;;119876;1183;24718;-67
2023/07/05 13:45:34;;;;;;;;;13.00;12.00;;;;;;;;119462;1192;24992;-70
2023/07/05 13:48:02;;;;;;;;;9.67;9.67;;;;;;;;119661;1193;25697;-69
2023/07/05 13:50:32;;;;;;;;;13.00;13.00;;;;;;;;119756;1192;25315;-73
2023/07/05 13:53:02;;;;;;;;;12.00;11.00;;;;;;;;119462;1189;25241;-69
2023/07/05 13:55:31;;;;;;;;;10.00;10.00;;;;;;;;119476;1193;25653;-65
2023/07/05 13:58:05;;;;;;;;;13.25;10.50;;;;;;;;119682;1193;25259;-65
2023/07/05 14:00:34;;;;;;;;;8.67;8.33;;;;;;;;119489;1193;25255;-65
2023/07/05 14:03:02;;;;;;;;;12.25;12.25;;;;;;;;119438;1193;24848;-65
2023/07/05 14:05:31;;;;;;;;;10.67;9.33;;;;;;;;119682;1193;25675;-67
2023/07/05 14:08:02;;;;;;;;;11.50;11.00;;;;;;;;119708;1193;25440;-68
2023/07/05 14:10:30;;;;;;;;;11.33;10.00;;;;;;;;119459;1192;24812;-63
2023/07/05 14:13:03;;;;;;;;;10.50;10.00;;;;;;;;119795;1188;25216;-63
2023/07/05 14:15:35;;;;;;;;;10.33;9.00;;;;;;;;119479;1192;25267;-64
2023/07/05 14:18:04;;;;;;;;;13.00;9.00;;;;;;;;119429;1193;25332;-66
2023/07/05 14:20:36;;;;;;;;;9.50;9.50;;;;;;;;119453;1186;25321;-66
2023/07/05 14:23:08;;;;;;;;;15.50;13.00;;;;;;;;119847;1189;25336;-66
2023/07/05 14:25:51;;;;;;;;;12.67;12.33;;;;;;;;119547;1189;24983;-66
2023/07/05 14:28:19;;;;;;;;;13.67;12.00;;;;;;;;119790;1192;24885;-65
2023/07/05 14:30:48;;;;;;;;;12.67;12.67;;;;;;;;119803;1180;25440;-67
2023/07/05 14:33:21;;;;;;;;;10.00;9.00;;;;;;;;119688;1192;24945;-68
2023/07/05 14:35:49;;;;;;;;;13.67;12.67;;;;;;;;119592;1192;25399;-67
2023/07/05 14:38:18;;;;;;;;;11.67;11.33;;;;;;;;119753;1183;24964;-65
2023/07/05 14:40:47;;;;;;;;;10.50;9.00;;;;;;;;119557;1184;25051;-65
2023/07/05 14:43:16;;;;;;;;;12.00;12.00;;;;;;;;119480;1185;24947;-65